FW6877 Weather Reports


Display with metric or nautical units.
time (UTC)temp
F
wind
direction
speed
MPH
gust
MPH
rain 1hr
in
rain 24hr
in
rain mn
in
humidity
%
barometer
mb
20221210030157 97 0.0 0.0 0.00 0.00 0.00 44 969.5
20221210025151 95 0.0 0.0 0.00 0.00 0.00 46 969.4
20221210024129 94 0.0 0.0 0.00 0.00 0.00 46 969.4
20221210023123 97 0.0 0.0 0.00 0.00 0.00 44 969.4
20221210022117 94 0.0 0.0 0.00 0.00 0.00 49 969.5
20221210021111 92 0.0 0.0 0.00 0.00 0.00 51 969.6
20221210020049 93 0.0 0.0 0.00 0.00 0.00 50 969.5
20221210015043 89 0.0 0.0 0.00 0.00 0.00 55 969.4
20221210014037 88 0.0 0.0 0.00 0.00 0.00 56 969.4
20221210013030 85 0.0 0.0 0.00 0.00 0.00 62 969.3
20221210012024 85 0.0 0.0 0.00 0.00 0.00 63 969.2
20221210011018 85 0.0 0.0 0.00 0.00 0.00 64 969.1
20221210010012 84 0.0 0.0 0.00 0.00 0.00 66 969.0
20221210005005 82 0.0 0.0 0.00 0.00 0.00 71 969.0
20221210003959 81 0.0 0.0 0.00 0.00 0.00 72 968.7
20221210002953 81 0.0 0.0 0.00 0.00 0.00 71 968.5
20221210001947 81 0.0 0.0 0.00 0.00 0.00 70 968.5
20221210000941 81 0.0 0.0 0.00 0.00 0.00 69 968.3
20221209235935 82 0.0 0.0 0.00 0.00 0.00 68 968.1
20221209234929 82 0.0 0.0 0.00 0.00 0.00 67 968.0
20221209233923 82 0.0 0.0 0.00 0.00 0.00 67 967.9
20221209232917 82 0.0 0.0 0.00 0.00 0.00 68 967.8
20221209231911 82 0.0 0.0 0.00 0.00 0.00 68 967.7
20221209230905 82 0.0 0.0 0.00 0.00 0.00 68 967.6
20221209225858 82 0.0 0.0 0.00 0.00 0.00 68 967.4
20221209224852 82 0.0 0.0 0.00 0.00 0.00 68 967.2
20221209223846 82 0.0 0.0 0.00 0.00 0.00 68 967.2
20221209222840 82 0.0 0.0 0.00 0.00 0.00 68 967.1
20221209221835 82 0.0 0.0 0.00 0.00 0.00 68 967.0
20221209220829 83 0.0 0.0 0.00 0.00 0.00 69 967.0
20221209215822 82 0.0 0.0 0.00 0.00 0.00 69 966.9
20221209214816 82 0.0 0.0 0.00 0.00 0.00 68 966.7
20221209213811 82 0.0 0.0 0.00 0.00 0.00 69 966.9
20221209212804 82 0.0 0.0 0.00 0.00 0.00 68 966.9
20221209211742 82 0.0 0.0 0.00 0.00 0.00 68 966.9
20221209210736 83 0.0 0.0 0.00 0.00 0.00 67 966.8
20221209205730 83 0.0 0.0 0.00 0.00 0.00 68 966.8
20221209204723 83 0.0 0.0 0.00 0.00 0.00 67 966.8
20221209203717 83 0.0 0.0 0.00 0.00 0.00 67 966.7
20221209202712 83 0.0 0.0 0.00 0.00 0.00 67 966.8
20221209201705 83 0.0 0.0 0.00 0.00 0.00 67 966.8
20221209200659 83 0.0 0.0 0.00 0.00 0.00 67 966.7
20221209195654 83 0.0 0.0 0.00 0.00 0.00 67 966.8
20221209194631 83 0.0 0.0 0.00 0.00 0.00 66 966.9
20221209193625 83 0.0 0.0 0.00 0.00 0.00 66 966.8
20221209192619 83 0.0 0.0 0.00 0.00 0.00 66 966.8
20221209191557 83 0.0 0.0 0.00 0.00 0.00 66 966.9
20221209190551 83 0.0 0.0 0.00 0.00 0.00 66 966.9
20221209185545 83 0.0 0.0 0.00 0.00 0.00 66 967.0
20221209184523 84 0.0 0.0 0.00 0.00 0.00 66 967.1
20221209183517 84 0.0 0.0 0.00 0.00 0.00 66 967.1
20221209182512 83 0.0 0.0 0.00 0.00 0.00 67 967.1
20221209181505 84 0.0 0.0 0.00 0.00 0.00 66 967.2
20221209180459 84 0.0 0.0 0.00 0.00 0.00 66 967.2
20221209175438 84 0.0 0.0 0.00 0.00 0.00 66 967.2
20221209174431 84 0.0 0.0 0.00 0.00 0.00 66 967.2
20221209173353 84 0.0 0.0 0.00 0.00 0.00 66 967.2
20221209172347 84 0.0 0.0 0.00 0.00 0.00 67 967.2
20221209171341 84 0.0 0.0 0.00 0.00 0.00 67 967.3
20221209170335 84 0.0 0.0 0.00 0.00 0.00 67 967.3
20221209165313 84 0.0 0.0 0.00 0.00 0.00 67 967.4
20221209164308 84 0.0 0.0 0.00 0.00 0.00 67 967.4
20221209163301 84 0.0 0.0 0.00 0.00 0.00 67 967.3
20221209162224 85 0.0 0.0 0.00 0.00 0.00 66 967.3
20221209161202 85 0.0 0.0 0.00 0.00 0.00 66 967.3
20221209160156 85 0.0 0.0 0.00 0.00 0.00 67 967.3
20221209155134 85 0.0 0.0 0.00 0.00 0.00 67 967.3
20221209154129 85 0.0 0.0 0.00 0.00 0.00 67 967.3
20221209153122 85 0.0 0.0 0.00 0.00 0.00 66 967.3
20221209152115 85 0.0 0.0 0.00 0.00 0.00 67 967.2
20221209151109 85 0.0 0.0 0.00 0.00 0.00 67 967.2
20221209150103 85 0.0 0.0 0.00 0.00 0.00 67 967.2
20221209145058 85 0.0 0.0 0.00 0.00 0.00 68 967.1
20221209144052 85 0.0 0.0 0.00 0.00 0.00 68 967.1
20221209143046 85 0.0 0.0 0.00 0.00 0.00 69 967.0
20221209142040 85 0.0 0.0 0.00 0.00 0.00 69 967.0
20221209141002 84 0.0 0.0 0.00 0.00 0.00 70 966.9
20221209135955 85 0.0 0.0 0.00 0.00 0.00 68 966.9
20221209134949 85 0.0 0.0 0.00 0.00 0.00 68 966.7
20221209133943 85 0.0 0.0 0.00 0.00 0.00 68 966.8
20221209132937 85 0.0 0.0 0.00 0.00 0.00 67 966.6
20221209131931 85 0.0 0.0 0.00 0.00 0.00 68 966.6
20221209130925 86 0.0 0.0 0.00 0.00 0.00 67 966.5
20221209125919 86 0.0 0.0 0.00 0.00 0.00 67 966.5
20221209124857 86 0.0 0.0 0.00 0.00 0.00 67 966.3
20221209123835 86 0.0 0.0 0.00 0.00 0.00 66 966.1
20221209122828 86 0.0 0.0 0.00 0.00 0.00 66 966.0
20221209121822 85 0.0 0.0 0.00 0.00 0.00 65 965.9
20221209120816 85 0.0 0.0 0.00 0.00 0.00 64 965.8
20221209115810 86 0.0 0.0 0.00 0.00 0.00 65 965.7
20221209114803 86 0.0 0.0 0.00 0.00 0.00 64 965.7
20221209113757 86 0.0 0.0 0.00 0.00 0.00 62 965.4
20221209112752 86 0.0 0.0 0.00 0.00 0.00 62 965.3
20221209111744 86 0.0 0.0 0.00 0.00 0.00 61 965.2
20221209110738 86 0.0 0.0 0.00 0.00 0.00 59 965.0
20221209105732 87 0.0 0.0 0.00 0.00 0.00 58 965.0
20221209104726 87 0.0 0.0 0.00 0.00 0.00 57 964.9
20221209103720 88 0.0 0.0 0.00 0.00 0.00 56 964.8
20221209102713 87 0.0 0.0 0.00 0.00 0.00 56 964.6
20221209101707 88 0.0 0.0 0.00 0.00 0.00 54 964.6
20221209100701 88 0.0 0.0 0.00 0.00 0.00 54 964.5
20221209095654 89 0.0 0.0 0.00 0.00 0.00 52 964.4
20221209094633 89 0.0 0.0 0.00 0.00 0.00 53 964.3
20221209093627 88 0.0 0.0 0.00 0.00 0.00 53 964.4
20221209092620 89 0.0 0.0 0.00 0.00 0.00 52 964.4
20221209091614 88 0.0 0.0 0.00 0.00 0.00 55 964.5
20221209090608 89 0.0 0.0 0.00 0.00 0.00 52 964.4
20221209085546 89 0.0 0.0 0.00 0.00 0.00 52 964.4
20221209084540 90 0.0 0.0 0.00 0.00 0.00 52 964.4
20221209083534 89 0.0 0.0 0.00 0.00 0.00 53 964.4
20221209082527 89 0.0 0.0 0.00 0.00 0.00 54 964.5
20221209081521 90 0.0 0.0 0.00 0.00 0.00 53 964.5
20221209080515 88 0.0 0.0 0.00 0.00 0.00 56 964.6
20221209075509 90 0.0 0.0 0.00 0.00 0.00 52 964.6
20221209074502 89 0.0 0.0 0.00 0.00 0.00 54 964.8
20221209073440 89 0.0 0.0 0.00 0.00 0.00 53 965.0
20221209072434 91 0.0 0.0 0.00 0.00 0.00 52 965.1
20221209071428 88 0.0 0.0 0.00 0.00 0.00 55 965.3
20221209070422 91 0.0 0.0 0.00 0.00 0.00 50 965.5
20221209065401 90 0.0 0.0 0.00 0.00 0.00 53 965.6
20221209064338 89 0.0 0.0 0.00 0.00 0.00 55 965.7
20221209063332 90 0.0 0.0 0.00 0.00 0.00 54 965.9
20221209062309 87 0.0 0.0 0.00 0.00 0.00 58 966.1
20221209061303 89 0.0 0.0 0.00 0.00 0.00 55 966.2
20221209060257 90 0.0 0.0 0.00 0.00 0.00 54 966.6
20221209055250 90 0.0 0.0 0.00 0.00 0.00 56 966.8
20221209054244 90 0.0 0.0 0.00 0.00 0.00 55 967.0
20221209053238 88 0.0 0.0 0.00 0.00 0.00 58 967.4
20221209052232 91 0.0 0.0 0.00 0.00 0.00 55 967.6
20221209051225 89 0.0 0.0 0.00 0.00 0.00 57 967.8
20221209050203 88 0.0 0.0 0.00 0.00 0.00 57 968.1
20221209045157 90 0.0 0.0 0.00 0.00 0.00 57 968.3
20221209044151 88 0.0 0.0 0.00 0.00 0.00 58 968.6
20221209043129 86 0.0 0.0 0.00 0.00 0.00 63 968.7
20221209042123 90 0.0 0.0 0.00 0.00 0.00 57 968.9
20221209041117 88 0.0 0.0 0.00 0.00 0.00 61 969.2
20221209040110 88 0.0 0.0 0.00 0.00 0.00 60 969.2
20221209035048 88 0.0 0.0 0.00 0.00 0.00 62 969.4
20221209034042 87 0.0 0.0 0.00 0.00 0.00 63 969.5
20221209033036 88 0.0 0.0 0.00 0.00 0.00 61 969.5
20221209032030 89 0.0 0.0 0.00 0.00 0.00 58 969.6